Time;durP1;ratioP1;P1;durP2;ratioP2;P2;SDS_P1;SDS_P2;PMS_P1;PMS_P2;Temp;Humidity;BMP_temperature;BMP_pressure;BME280_temperature;BME280_humidity;BME280_pressure;Samples;Min_cycle;Max_cycle;Signal;HPM_P1;HPM_P2
2020/12/19 00:00:58;;;;;;;8.27;6.05;;;6.50;91.30;;;;;;2049154;29;20035;-82
2020/12/19 00:01:58;;;;;;;8.23;5.65;;;6.50;91.30;;;;;;2058009;28;20042;-81
2020/12/19 00:02:59;;;;;;;10.23;6.85;;;6.50;91.30;;;;;;2058568;28;20027;-83
2020/12/19 00:04:00;;;;;;;9.82;6.00;;;6.50;91.30;;;;;;2058573;28;20019;-82
2020/12/19 00:05:02;;;;;;;9.82;6.35;;;6.40;91.30;;;;;;2043293;29;20063;-81
2020/12/19 00:06:07;;;;;;;8.55;6.00;;;6.40;91.30;;;;;;2045283;28;20039;-82
2020/12/19 00:07:08;;;;;;;7.53;5.15;;;6.50;91.30;;;;;;2049283;29;20027;-82
2020/12/19 00:08:08;;;;;;;8.75;5.68;;;6.40;91.30;;;;;;2048201;29;20035;-82
2020/12/19 00:09:09;;;;;;;9.20;5.03;;;6.40;91.30;;;;;;2057024;28;20067;-82
2020/12/19 00:10:10;;;;;;;9.25;6.10;;;6.40;91.30;;;;;;2056915;28;20031;-83
2020/12/19 00:11:10;;;;;;;8.50;5.63;;;6.40;91.30;;;;;;2049488;29;20042;-82
2020/12/19 00:12:11;;;;;;;7.55;5.35;;;6.40;91.30;;;;;;2042081;28;20089;-82
2020/12/19 00:13:12;;;;;;;8.65;5.32;;;6.40;91.40;;;;;;2040611;29;20103;-82
2020/12/19 00:14:13;;;;;;;8.23;5.63;;;6.40;91.40;;;;;;2049319;28;20490;-82
2020/12/19 00:15:17;;;;;;;7.93;5.65;;;6.40;91.40;;;;;;2041510;29;20056;-82
2020/12/19 00:16:18;;;;;;;8.02;5.45;;;6.40;91.40;;;;;;2047161;28;20031;-82
2020/12/19 00:17:19;;;;;;;7.85;5.70;;;6.40;91.40;;;;;;2041624;29;20042;-82
2020/12/19 00:18:19;;;;;;;10.60;5.97;;;6.40;91.40;;;;;;2033544;29;20398;-83
2020/12/19 00:19:20;;;;;;;8.02;5.82;;;6.40;91.40;;;;;;2035407;29;20088;-82
2020/12/19 00:20:21;;;;;;;8.63;5.88;;;6.40;91.40;;;;;;2041208;29;20130;-83
2020/12/19 00:21:22;;;;;;;8.85;6.03;;;6.40;91.60;;;;;;2050631;28;20039;-82
2020/12/19 00:22:22;;;;;;;7.50;5.53;;;6.40;91.40;;;;;;2057924;28;20023;-83
2020/12/19 00:23:23;;;;;;;9.98;6.65;;;6.40;91.40;;;;;;2045650;29;20084;-82
2020/12/19 00:24:24;;;;;;;8.52;5.82;;;6.40;91.40;;;;;;2050756;29;20039;-82
2020/12/19 00:25:24;;;;;;;9.18;6.45;;;6.40;91.40;;;;;;2043694;29;20015;-82
2020/12/19 00:26:35;;;;;;;7.97;5.63;;;6.40;91.40;;;;;;2040544;29;20036;-83
2020/12/19 00:27:36;;;;;;;9.43;6.32;;;6.40;91.40;;;;;;2050210;28;20408;-83
2020/12/19 00:28:36;;;;;;;10.20;6.10;;;6.40;91.40;;;;;;2052981;28;20094;-83
2020/12/19 00:29:38;;;;;;;8.82;6.15;;;6.40;91.40;;;;;;2046195;28;20459;-82
2020/12/19 00:30:39;;;;;;;8.60;5.75;;;6.40;91.40;;;;;;2049248;28;20027;-82
2020/12/19 00:31:40;;;;;;;11.18;6.53;;;6.40;91.40;;;;;;2049628;28;20094;-83
2020/12/19 00:32:41;;;;;;;10.85;7.07;;;6.40;91.40;;;;;;2045701;28;20138;-83
2020/12/19 00:33:44;;;;;;;10.30;6.88;;;6.40;91.40;;;;;;2044875;28;20399;-82
2020/12/19 00:34:44;;;;;;;9.32;6.07;;;6.40;91.40;;;;;;2048536;28;20074;-83
2020/12/19 00:35:45;;;;;;;9.88;6.63;;;6.40;91.40;;;;;;2049121;29;20066;-83
2020/12/19 00:36:46;;;;;;;9.68;6.88;;;6.40;91.40;;;;;;2055497;28;20034;-83
2020/12/19 00:37:46;;;;;;;9.15;6.25;;;6.40;91.50;;;;;;2045638;29;20031;-83
2020/12/19 00:38:47;;;;;;;10.82;6.68;;;6.40;91.50;;;;;;2036747;29;20024;-83
2020/12/19 00:39:48;;;;;;;10.80;7.35;;;6.40;91.50;;;;;;2044767;28;20522;-82
2020/12/19 00:40:48;;;;;;;10.25;7.13;;;6.30;91.40;;;;;;2054700;28;20031;-83
2020/12/19 00:41:49;;;;;;;9.73;6.47;;;6.30;91.40;;;;;;2048114;28;20178;-83
2020/12/19 00:42:50;;;;;;;10.20;6.65;;;6.30;91.50;;;;;;2039294;29;20042;-83
2020/12/19 00:43:51;;;;;;;9.80;6.65;;;6.30;91.50;;;;;;2038021;29;20119;-82
2020/12/19 00:44:52;;;;;;;9.50;6.85;;;6.30;91.50;;;;;;2040894;28;20031;-82
2020/12/19 00:45:53;;;;;;;9.50;6.68;;;6.30;91.50;;;;;;2047790;28;20035;-81
2020/12/19 00:46:53;;;;;;;9.63;6.80;;;6.30;91.50;;;;;;2040975;29;20123;-82
2020/12/19 00:47:54;;;;;;;9.45;6.88;;;6.30;91.50;;;;;;2051757;28;20023;-82
2020/12/19 00:48:55;;;;;;;9.88;7.07;;;6.30;91.50;;;;;;2044146;29;20035;-82
2020/12/19 00:49:55;;;;;;;10.07;6.50;;;6.30;91.50;;;;;;2041121;29;20113;-82
2020/12/19 00:50:56;;;;;;;11.48;6.97;;;6.30;91.50;;;;;;2033215;29;20043;-83
2020/12/19 00:51:56;;;;;;;10.07;6.60;;;6.30;91.50;;;;;;2030819;29;20036;-82
2020/12/19 00:52:57;;;;;;;9.73;6.70;;;6.30;91.50;;;;;;2048644;28;20498;-82
2020/12/19 00:53:58;;;;;;;9.88;6.65;;;6.20;91.50;;;;;;2054035;28;20118;-82
2020/12/19 00:54:59;;;;;;;9.20;6.53;;;6.30;91.60;;;;;;2056673;28;20509;-82
2020/12/19 00:55:59;;;;;;;10.20;6.55;;;6.20;91.60;;;;;;2051268;28;20035;-82
2020/12/19 00:57:00;;;;;;;9.45;6.53;;;6.30;91.60;;;;;;2035078;29;20029;-83
2020/12/19 00:58:01;;;;;;;9.65;6.55;;;6.20;91.60;;;;;;2033527;29;20499;-82
2020/12/19 00:59:02;;;;;;;9.45;6.35;;;6.20;91.60;;;;;;2031640;29;20032;-82
2020/12/19 01:00:10;;;;;;;10.38;6.75;;;6.20;91.60;;;;;;2043458;29;20024;-82
2020/12/19 01:01:13;;;;;;;9.75;6.35;;;6.20;91.60;;;;;;2055172;28;20438;-82
2020/12/19 01:02:13;;;;;;;10.27;6.38;;;6.20;91.60;;;;;;2047746;29;20027;-82
2020/12/19 01:03:14;;;;;;;9.90;6.45;;;6.20;91.60;;;;;;2047774;28;20023;-83
2020/12/19 01:04:15;;;;;;;9.98;6.38;;;6.20;91.60;;;;;;2048193;28;20470;-82
2020/12/19 01:05:15;;;;;;;8.90;6.38;;;6.20;91.60;;;;;;2048484;28;20067;-82
2020/12/19 01:06:17;;;;;;;9.05;6.55;;;6.20;91.60;;;;;;2049699;28;20106;-82
2020/12/19 01:07:18;;;;;;;9.18;6.35;;;6.20;91.60;;;;;;2056387;28;20030;-82
2020/12/19 01:08:18;;;;;;;9.30;6.55;;;6.20;91.60;;;;;;2056835;28;20497;-81
2020/12/19 01:09:19;;;;;;;9.95;6.88;;;6.20;91.60;;;;;;2040623;29;20036;-82
2020/12/19 01:10:20;;;;;;;10.35;7.63;;;6.20;91.60;;;;;;2038516;29;20027;-82
2020/12/19 01:11:22;;;;;;;9.98;6.90;;;6.20;91.70;;;;;;2048640;28;20676;-82
2020/12/19 01:12:22;;;;;;;10.20;6.88;;;6.20;91.70;;;;;;2053435;28;20031;-82
2020/12/19 01:13:23;;;;;;;11.52;7.38;;;6.30;91.70;;;;;;2056866;28;20025;-82
2020/12/19 01:14:23;;;;;;;11.90;7.45;;;6.20;91.60;;;;;;2054506;28;20058;-82
2020/12/19 01:15:24;;;;;;;9.80;7.03;;;6.20;91.60;;;;;;2041882;28;20031;-82
2020/12/19 01:16:29;;;;;;;10.68;7.95;;;6.30;91.70;;;;;;2039878;29;20030;-82
2020/12/19 01:17:30;;;;;;;10.15;7.03;;;6.20;91.70;;;;;;2042038;28;20487;-82
2020/12/19 01:18:30;;;;;;;11.27;7.22;;;6.30;91.70;;;;;;2040121;29;20035;-82
2020/12/19 01:19:32;;;;;;;10.40;7.28;;;6.30;91.70;;;;;;2040698;29;20055;-82
2020/12/19 01:20:32;;;;;;;10.07;7.20;;;6.30;91.70;;;;;;2048747;28;20031;-81
2020/12/19 01:21:33;;;;;;;11.07;7.50;;;6.30;91.70;;;;;;2055524;28;20031;-82
2020/12/19 01:22:34;;;;;;;10.55;7.07;;;6.30;91.70;;;;;;2056776;28;20134;-82
2020/12/19 01:23:34;;;;;;;12.60;8.27;;;6.30;91.70;;;;;;2049044;28;20023;-81
2020/12/19 01:24:35;;;;;;;10.68;7.40;;;6.30;91.70;;;;;;2055938;28;20026;-82
2020/12/19 01:25:36;;;;;;;10.57;7.65;;;6.30;91.60;;;;;;2052453;28;20069;-82
2020/12/19 01:26:37;;;;;;;12.02;8.80;;;6.30;91.60;;;;;;2047733;28;20031;-82
2020/12/19 01:27:37;;;;;;;11.07;8.45;;;6.30;91.60;;;;;;2048233;29;20087;-81
2020/12/19 01:28:39;;;;;;;12.50;8.90;;;6.40;91.60;;;;;;2046804;28;20023;-81
2020/12/19 01:29:39;;;;;;;12.02;8.55;;;6.40;91.70;;;;;;2056515;28;20085;-82
2020/12/19 01:30:40;;;;;;;12.43;8.13;;;6.40;91.70;;;;;;2056042;28;20058;-82
2020/12/19 01:31:41;;;;;;;12.82;9.38;;;6.40;91.70;;;;;;2041239;28;20056;-82
2020/12/19 01:32:42;;;;;;;11.98;8.90;;;6.40;91.70;;;;;;2055229;28;20038;-82
2020/12/19 01:33:43;;;;;;;12.13;8.60;;;6.40;91.90;;;;;;2041920;28;20711;-82
2020/12/19 01:34:43;;;;;;;12.73;9.18;;;6.40;91.70;;;;;;2047776;29;20039;-82
2020/12/19 01:35:45;;;;;;;12.43;9.10;;;6.40;91.60;;;;;;2062910;28;20022;-81
2020/12/19 01:36:46;;;;;;;12.90;8.98;;;6.40;91.60;;;;;;2055980;28;20041;-81
2020/12/19 01:37:47;;;;;;;13.00;8.95;;;6.50;91.60;;;;;;2040384;29;20055;-82
2020/12/19 01:38:48;;;;;;;12.43;8.63;;;6.40;91.60;;;;;;2039940;29;20092;-81
2020/12/19 01:39:48;;;;;;;13.30;9.20;;;6.50;91.60;;;;;;2048705;28;20518;-81
2020/12/19 01:40:53;;;;;;;12.95;9.52;;;6.40;91.60;;;;;;2047009;28;20055;-81
2020/12/19 01:41:54;;;;;;;13.52;9.07;;;6.50;91.60;;;;;;2041316;28;20409;-81
2020/12/19 01:42:55;;;;;;;12.02;8.43;;;6.50;91.60;;;;;;2049666;28;20035;-81
2020/12/19 01:43:57;;;;;;;11.77;8.60;;;6.50;91.60;;;;;;2056758;28;20027;-81
2020/12/19 01:44:58;;;;;;;12.02;8.93;;;6.50;91.60;;;;;;2049419;28;20396;-81
2020/12/19 01:45:58;;;;;;;12.20;8.48;;;6.50;91.60;;;;;;2055852;28;20022;-81
2020/12/19 01:47:01;;;;;;;12.70;9.02;;;6.50;91.60;;;;;;2048471;28;20039;-82
2020/12/19 01:48:09;;;;;;;12.02;9.02;;;6.50;91.60;;;;;;2055905;28;20027;-81
2020/12/19 01:49:09;;;;;;;12.13;8.68;;;6.50;91.60;;;;;;2048497;28;20019;-81
2020/12/19 01:50:10;;;;;;;12.15;8.45;;;6.50;91.60;;;;;;2041431;28;20127;-81
2020/12/19 01:51:12;;;;;;;10.95;8.15;;;6.50;91.60;;;;;;2047968;28;20033;-81
2020/12/19 01:52:14;;;;;;;10.90;7.97;;;6.50;91.60;;;;;;2048773;28;20093;-82
2020/12/19 01:53:23;;;;;;;12.73;8.02;;;6.50;91.60;;;;;;2055876;28;20058;-82
2020/12/19 01:54:24;;;;;;;11.25;8.05;;;6.50;91.60;;;;;;2048382;28;20035;-81
2020/12/19 01:55:25;;;;;;;12.93;8.73;;;6.50;91.60;;;;;;2050740;28;20027;-83
2020/12/19 01:56:44;;;;;;;13.00;9.48;;;6.50;91.60;;;;;;2064146;28;20077;-82
2020/12/19 01:57:45;;;;;;;12.18;8.90;;;6.50;91.60;;;;;;2053758;28;20121;-82
2020/12/19 01:58:45;;;;;;;12.73;9.20;;;6.50;91.60;;;;;;2047721;29;20158;-82
2020/12/19 01:59:46;;;;;;;11.60;8.48;;;6.50;91.60;;;;;;2040261;28;20042;-82
2020/12/19 02:00:47;;;;;;;13.20;9.07;;;6.50;91.60;;;;;;2032161;29;20538;-82
2020/12/19 02:01:52;;;;;;;11.18;8.32;;;6.50;91.60;;;;;;2024798;29;20037;-82
2020/12/19 02:02:53;;;;;;;11.32;7.93;;;6.50;91.60;;;;;;2048676;28;20118;-82
2020/12/19 02:03:54;;;;;;;11.70;8.52;;;6.50;91.60;;;;;;2040366;29;20557;-82
2020/12/19 02:04:54;;;;;;;12.82;8.63;;;6.50;91.70;;;;;;2024454;29;20127;-82
2020/12/19 02:05:56;;;;;;;12.35;8.88;;;6.50;91.60;;;;;;2038411;29;20504;-82
2020/12/19 02:07:00;;;;;;;13.10;8.48;;;6.50;91.70;;;;;;2047944;28;20111;-82
2020/12/19 02:08:02;;;;;;;12.52;9.30;;;6.50;91.70;;;;;;2056299;28;20027;-83
2020/12/19 02:09:03;;;;;;;12.40;8.70;;;6.60;91.70;;;;;;2048386;28;20041;-82
2020/12/19 02:10:03;;;;;;;13.88;9.35;;;6.50;91.70;;;;;;2032303;29;20503;-82
2020/12/19 02:11:05;;;;;;;13.30;9.38;;;6.50;91.70;;;;;;2040388;29;20115;-83
2020/12/19 02:12:09;;;;;;;13.68;9.15;;;6.50;91.70;;;;;;2042114;29;20395;-83
2020/12/19 02:13:09;;;;;;;13.38;9.00;;;6.50;91.70;;;;;;2053819;28;20027;-82
2020/12/19 02:14:11;;;;;;;12.70;9.25;;;6.50;91.70;;;;;;2053858;28;20037;-82
2020/12/19 02:15:11;;;;;;;13.77;9.57;;;6.50;91.70;;;;;;2048045;28;20031;-82
2020/12/19 02:16:19;;;;;;;12.98;8.85;;;6.50;91.70;;;;;;2042406;28;20031;-81
2020/12/19 02:17:20;;;;;;;12.85;8.80;;;6.50;91.70;;;;;;2049876;28;20186;-82
2020/12/19 02:18:21;;;;;;;13.70;9.10;;;6.50;91.70;;;;;;2054702;28;20046;-82
2020/12/19 02:19:21;;;;;;;13.27;9.50;;;6.50;91.70;;;;;;2047807;28;20035;-82
2020/12/19 02:20:22;;;;;;;13.70;9.95;;;6.50;91.70;;;;;;2043673;28;20479;-82
2020/12/19 02:21:22;;;;;;;13.90;9.65;;;6.50;92.00;;;;;;2042067;29;20036;-82
2020/12/19 02:22:23;;;;;;;14.18;10.00;;;6.50;91.80;;;;;;2054219;28;20027;-82
2020/12/19 02:23:24;;;;;;;13.95;10.05;;;6.50;91.80;;;;;;2050112;28;20031;-82
2020/12/19 02:24:25;;;;;;;13.88;10.25;;;6.50;91.80;;;;;;2046455;29;20034;-82
2020/12/19 02:25:30;;;;;;;12.80;9.60;;;6.50;91.80;;;;;;2056054;28;20027;-82
2020/12/19 02:26:31;;;;;;;13.70;9.88;;;6.50;91.80;;;;;;2056740;28;20054;-82
2020/12/19 02:27:32;;;;;;;13.10;8.93;;;6.50;91.80;;;;;;2056149;28;20034;-82
2020/12/19 02:28:32;;;;;;;13.73;9.80;;;6.50;91.80;;;;;;2054294;28;20035;-82
2020/12/19 02:29:33;;;;;;;14.63;9.88;;;6.50;91.80;;;;;;2048314;28;20036;-82
2020/12/19 02:30:36;;;;;;;14.70;9.60;;;6.50;91.80;;;;;;2050690;28;20433;-82
2020/12/19 02:31:36;;;;;;;12.68;9.02;;;6.50;92.10;;;;;;2056425;28;20055;-82
2020/12/19 02:32:37;;;;;;;12.70;9.32;;;6.50;91.80;;;;;;2048226;29;20062;-82
2020/12/19 02:33:38;;;;;;;12.20;8.70;;;6.50;91.80;;;;;;2038877;29;20027;-82
2020/12/19 02:34:38;;;;;;;11.52;8.48;;;6.50;91.80;;;;;;2056013;28;20154;-82
2020/12/19 02:35:39;;;;;;;12.45;8.77;;;6.50;91.80;;;;;;2055601;28;20047;-82
2020/12/19 02:36:40;;;;;;;12.10;9.05;;;6.50;91.80;;;;;;2046338;28;20040;-82
2020/12/19 02:37:40;;;;;;;12.55;8.75;;;6.50;91.80;;;;;;2040490;29;20048;-82
2020/12/19 02:38:41;;;;;;;12.57;8.07;;;6.50;91.80;;;;;;2048467;28;20043;-82
2020/12/19 02:39:42;;;;;;;12.80;9.00;;;6.50;91.80;;;;;;2051455;28;20034;-82
2020/12/19 02:40:43;;;;;;;12.73;8.90;;;6.50;91.80;;;;;;2048238;28;20127;-82
2020/12/19 02:41:45;;;;;;;11.95;8.93;;;6.50;91.80;;;;;;2049537;28;20118;-82
2020/12/19 02:42:46;;;;;;;12.63;8.57;;;6.50;91.80;;;;;;2049282;28;20023;-82
2020/12/19 02:43:56;;;;;;;13.05;8.93;;;6.50;91.80;;;;;;2038694;29;20043;-82
2020/12/19 02:44:57;;;;;;;11.10;7.82;;;6.50;91.80;;;;;;2048211;29;20454;-82
2020/12/19 02:46:01;;;;;;;13.45;9.27;;;6.50;91.80;;;;;;2055955;28;20042;-82
2020/12/19 02:47:01;;;;;;;13.77;9.52;;;6.40;91.80;;;;;;2055856;28;20038;-82
2020/12/19 02:48:02;;;;;;;13.80;9.48;;;6.50;91.90;;;;;;2040211;28;20059;-82
2020/12/19 02:49:05;;;;;;;13.57;9.20;;;6.40;91.80;;;;;;2047409;28;20064;-83
2020/12/19 02:50:06;;;;;;;14.02;8.90;;;6.50;91.90;;;;;;2062611;28;20523;-82
2020/12/19 02:51:07;;;;;;;12.90;8.95;;;6.40;91.90;;;;;;2047885;28;20116;-82
2020/12/19 02:52:07;;;;;;;12.48;8.77;;;6.40;91.90;;;;;;2055648;28;20505;-82
2020/12/19 02:53:08;;;;;;;13.32;8.93;;;6.50;91.90;;;;;;2048234;28;20023;-82
2020/12/19 02:54:09;;;;;;;13.45;9.45;;;6.40;91.90;;;;;;2048228;28;20039;-82
2020/12/19 02:55:09;;;;;;;13.18;9.32;;;6.40;91.90;;;;;;2050863;28;20481;-82
2020/12/19 02:56:10;;;;;;;12.70;9.20;;;6.40;91.90;;;;;;2048122;28;20114;-82
2020/12/19 02:57:10;;;;;;;12.98;9.43;;;6.50;91.90;;;;;;2048012;29;20134;-83
2020/12/19 02:58:11;;;;;;;12.88;8.68;;;6.40;91.90;;;;;;2055525;28;20035;-82
2020/12/19 02:59:12;;;;;;;13.75;9.10;;;6.40;92.20;;;;;;2040100;29;20031;-82
2020/12/19 03:00:13;;;;;;;11.45;8.40;;;6.40;91.90;;;;;;2028443;29;20075;-82
2020/12/19 03:01:14;;;;;;;12.18;8.57;;;6.40;91.90;;;;;;2032561;29;20032;-82
2020/12/19 03:02:14;;;;;;;13.73;9.35;;;6.40;91.90;;;;;;2048382;28;20058;-83
2020/12/19 03:03:15;;;;;;;12.73;8.68;;;6.40;92.00;;;;;;2052519;28;20038;-82
2020/12/19 03:04:15;;;;;;;12.82;8.68;;;6.40;92.00;;;;;;2053310;28;20027;-82
2020/12/19 03:05:16;;;;;;;12.15;8.30;;;6.40;92.00;;;;;;2048809;28;20106;-82
2020/12/19 03:06:17;;;;;;;11.57;7.90;;;6.30;92.00;;;;;;2046352;29;20094;-81
2020/12/19 03:07:17;;;;;;;11.77;8.52;;;6.40;92.00;;;;;;2047475;28;20476;-82
2020/12/19 03:08:18;;;;;;;12.52;8.77;;;6.40;92.00;;;;;;2047922;29;20509;-82
2020/12/19 03:09:20;;;;;;;12.90;8.48;;;6.40;92.00;;;;;;2047211;28;20107;-82
2020/12/19 03:10:21;;;;;;;13.32;8.77;;;6.30;92.00;;;;;;2054449;28;20461;-82
2020/12/19 03:11:21;;;;;;;12.18;8.50;;;6.40;92.00;;;;;;2055671;28;20030;-82
2020/12/19 03:12:22;;;;;;;11.45;8.50;;;6.40;92.00;;;;;;2037084;29;20036;-82
2020/12/19 03:13:22;;;;;;;10.80;8.27;;;6.40;92.00;;;;;;2037472;29;20023;-82
2020/12/19 03:14:23;;;;;;;12.60;8.15;;;6.30;92.00;;;;;;2046487;28;20461;-82
2020/12/19 03:15:24;;;;;;;11.57;8.23;;;6.30;92.00;;;;;;2056148;28;20022;-82
2020/12/19 03:16:24;;;;;;;10.75;7.68;;;6.30;92.00;;;;;;2055353;28;20026;-82
2020/12/19 03:17:25;;;;;;;11.85;7.78;;;6.30;92.00;;;;;;2054826;28;20125;-82
2020/12/19 03:18:25;;;;;;;10.52;7.35;;;6.30;92.00;;;;;;2046198;29;20429;-82
2020/12/19 03:19:26;;;;;;;11.40;7.97;;;6.30;92.10;;;;;;2040265;29;20035;-82
2020/12/19 03:20:27;;;;;;;12.63;8.05;;;6.30;92.10;;;;;;2047746;28;20034;-82
2020/12/19 03:21:27;;;;;;;11.98;7.70;;;6.30;92.10;;;;;;2043724;28;20035;-83
2020/12/19 03:22:28;;;;;;;13.25;8.80;;;6.30;92.40;;;;;;2046546;28;20035;-83
2020/12/19 03:23:28;;;;;;;12.02;8.07;;;6.30;92.10;;;;;;2041692;28;20066;-83
2020/12/19 03:24:29;;;;;;;11.38;8.32;;;6.30;92.10;;;;;;2047036;29;20429;-83
2020/12/19 03:25:30;;;;;;;12.63;8.20;;;6.30;92.10;;;;;;2048311;28;20536;-82
2020/12/19 03:26:31;;;;;;;12.52;8.05;;;6.30;92.10;;;;;;2046126;28;20023;-82
2020/12/19 03:27:32;;;;;;;11.57;7.95;;;6.30;92.10;;;;;;2051672;28;20104;-82
2020/12/19 03:28:32;;;;;;;12.30;8.60;;;6.30;92.10;;;;;;2053658;28;20773;-83
2020/12/19 03:29:33;;;;;;;12.40;8.35;;;6.30;92.10;;;;;;2051050;28;20071;-83
2020/12/19 03:30:34;;;;;;;11.57;8.40;;;6.30;92.40;;;;;;2053497;28;20031;-82
2020/12/19 03:31:34;;;;;;;12.63;8.57;;;6.30;92.10;;;;;;2057422;28;20097;-83
2020/12/19 03:32:35;;;;;;;11.60;7.90;;;6.30;92.10;;;;;;2056926;28;20031;-82
2020/12/19 03:33:35;;;;;;;12.23;8.15;;;6.20;92.10;;;;;;2056708;28;20069;-82
2020/12/19 03:34:36;;;;;;;12.18;8.50;;;6.30;92.10;;;;;;2057422;28;20110;-83
2020/12/19 03:35:39;;;;;;;11.82;8.25;;;6.30;92.20;;;;;;2055232;28;20031;-83
2020/12/19 03:36:40;;;;;;;11.82;8.20;;;6.30;92.20;;;;;;2049595;28;20031;-82
2020/12/19 03:37:41;;;;;;;12.82;8.05;;;6.20;92.10;;;;;;2056801;28;20042;-82
2020/12/19 03:38:41;;;;;;;13.27;8.85;;;6.20;92.10;;;;;;2052406;28;20168;-82
2020/12/19 03:39:42;;;;;;;12.40;8.48;;;6.20;92.10;;;;;;2055887;28;20477;-82
2020/12/19 03:40:42;;;;;;;14.73;9.93;;;6.20;92.10;;;;;;2054665;28;20031;-82
2020/12/19 03:41:43;;;;;;;14.38;9.75;;;6.20;92.20;;;;;;2051599;28;20038;-83
2020/12/19 03:42:44;;;;;;;12.68;8.93;;;6.20;92.10;;;;;;2048601;28;20513;-83
2020/12/19 03:43:45;;;;;;;12.25;8.98;;;6.20;92.10;;;;;;2049179;28;20031;-82
2020/12/19 03:44:45;;;;;;;12.73;9.50;;;6.30;92.20;;;;;;2058095;28;20027;-83
2020/12/19 03:45:46;;;;;;;13.48;9.10;;;6.20;92.10;;;;;;2034235;29;20032;-82
2020/12/19 03:46:46;;;;;;;12.18;9.18;;;6.20;92.10;;;;;;2040552;29;20067;-82
2020/12/19 03:47:47;;;;;;;13.35;8.85;;;6.30;92.20;;;;;;2054248;28;20081;-83
2020/12/19 03:48:48;;;;;;;12.30;8.48;;;6.30;92.20;;;;;;2051841;28;20027;-82
2020/12/19 03:49:49;;;;;;;13.63;9.10;;;6.30;92.20;;;;;;2033563;29;20443;-83
2020/12/19 03:50:49;;;;;;;12.95;8.32;;;6.20;92.10;;;;;;2049653;28;20470;-83
2020/12/19 03:51:50;;;;;;;11.40;7.97;;;6.20;92.20;;;;;;2057350;28;20178;-82
2020/12/19 03:52:51;;;;;;;11.35;7.85;;;6.20;92.20;;;;;;2056887;28;20069;-83
2020/12/19 03:53:51;;;;;;;11.95;8.35;;;6.20;92.50;;;;;;2047296;29;20031;-82
2020/12/19 03:54:52;;;;;;;10.90;7.70;;;6.20;92.20;;;;;;2034347;29;20031;-82
2020/12/19 03:55:53;;;;;;;11.50;8.32;;;6.20;92.20;;;;;;2048788;28;20109;-82
2020/12/19 03:56:53;;;;;;;11.27;8.20;;;6.20;92.20;;;;;;2049034;28;20039;-83
2020/12/19 03:57:54;;;;;;;11.38;7.82;;;6.20;92.20;;;;;;2048750;28;20031;-82
2020/12/19 03:58:55;;;;;;;13.15;8.57;;;6.20;92.20;;;;;;2041420;29;20035;-82
2020/12/19 03:59:55;;;;;;;11.57;8.32;;;6.20;92.20;;;;;;2039719;29;20031;-82
2020/12/19 04:00:56;;;;;;;13.15;8.50;;;6.20;92.20;;;;;;2048626;28;20102;-82
2020/12/19 04:01:57;;;;;;;14.32;9.27;;;6.10;92.20;;;;;;2050113;28;20494;-82
2020/12/19 04:02:57;;;;;;;13.25;8.45;;;6.20;92.20;;;;;;2055348;28;20121;-82
2020/12/19 04:03:58;;;;;;;11.15;8.13;;;6.20;92.20;;;;;;2056845;28;20018;-82
2020/12/19 04:04:58;;;;;;;12.40;8.38;;;6.20;92.20;;;;;;2048949;28;20078;-82
2020/12/19 04:05:59;;;;;;;11.85;7.80;;;6.20;92.30;;;;;;2034061;29;20395;-83
2020/12/19 04:07:01;;;;;;;13.45;8.77;;;6.20;92.30;;;;;;2049615;28;20398;-82
2020/12/19 04:08:02;;;;;;;11.75;8.15;;;6.20;92.30;;;;;;2065954;28;20081;-81
2020/12/19 04:09:03;;;;;;;10.88;7.82;;;6.20;92.30;;;;;;2065875;28;20027;-82
2020/12/19 04:10:06;;;;;;;11.70;8.13;;;6.20;92.30;;;;;;2058597;29;20031;-81
2020/12/19 04:11:06;;;;;;;12.73;8.20;;;6.20;92.30;;;;;;2053418;28;20028;-83
2020/12/19 04:12:07;;;;;;;11.88;8.43;;;6.20;92.30;;;;;;2059023;28;20051;-82
2020/12/19 04:13:08;;;;;;;12.68;8.80;;;6.10;92.20;;;;;;2058216;29;20086;-82
2020/12/19 04:14:09;;;;;;;12.32;7.97;;;6.20;92.30;;;;;;2046161;29;20103;-82
2020/12/19 04:15:11;;;;;;;11.90;7.78;;;6.20;92.30;;;;;;2040585;29;20491;-82
2020/12/19 04:16:11;;;;;;;11.32;8.13;;;6.10;92.30;;;;;;2051102;28;20113;-83
2020/12/19 04:17:12;;;;;;;11.70;8.35;;;6.20;92.30;;;;;;2056196;29;20027;-82
2020/12/19 04:18:13;;;;;;;12.73;8.90;;;6.20;92.30;;;;;;2058018;28;20031;-83
2020/12/19 04:19:14;;;;;;;11.18;8.45;;;6.20;92.30;;;;;;2053533;28;20051;-82
2020/12/19 04:20:15;;;;;;;11.73;8.20;;;6.10;92.60;;;;;;2066200;28;20109;-81
2020/12/19 04:21:15;;;;;;;11.32;8.23;;;6.10;92.30;;;;;;2057654;29;20398;-81
2020/12/19 04:22:16;;;;;;;12.90;8.60;;;6.20;92.30;;;;;;2058521;28;20031;-82
2020/12/19 04:23:16;;;;;;;12.05;8.35;;;6.10;92.30;;;;;;2051219;28;20024;-81
2020/12/19 04:24:17;;;;;;;12.23;7.88;;;6.10;92.30;;;;;;2047054;29;20020;-82
2020/12/19 04:25:18;;;;;;;12.18;8.27;;;6.10;92.30;;;;;;2034141;29;20032;-82
2020/12/19 04:26:18;;;;;;;12.25;8.05;;;6.10;92.30;;;;;;2049208;28;20561;-82
2020/12/19 04:27:19;;;;;;;12.23;7.97;;;6.10;92.30;;;;;;2043671;29;20047;-82
2020/12/19 04:28:19;;;;;;;12.35;8.30;;;6.10;92.30;;;;;;2032881;29;20499;-82
2020/12/19 04:29:21;;;;;;;12.35;7.93;;;6.10;92.30;;;;;;2049411;28;20055;-82
2020/12/19 04:30:21;;;;;;;11.75;7.82;;;6.10;92.40;;;;;;2062182;28;20529;-82
2020/12/19 04:31:22;;;;;;;11.35;8.07;;;6.10;92.30;;;;;;2049037;28;20043;-82
2020/12/19 04:32:23;;;;;;;11.63;7.85;;;6.10;92.30;;;;;;2045798;29;20113;-82
2020/12/19 04:33:24;;;;;;;14.27;8.82;;;6.10;92.40;;;;;;2048706;28;20118;-82
2020/12/19 04:34:25;;;;;;;11.68;8.23;;;6.10;92.40;;;;;;2041626;28;20035;-82
2020/12/19 04:35:26;;;;;;;11.85;7.85;;;6.10;92.40;;;;;;2039611;29;20019;-82
2020/12/19 04:36:26;;;;;;;14.23;9.15;;;6.10;92.40;;;;;;2043275;28;20494;-82
2020/12/19 04:37:27;;;;;;;13.65;9.15;;;6.10;92.40;;;;;;2056934;28;20031;-82
2020/12/19 04:38:28;;;;;;;12.27;8.20;;;6.10;92.40;;;;;;2045168;29;20027;-82
2020/12/19 04:39:28;;;;;;;12.00;7.78;;;6.10;92.40;;;;;;2043690;29;20051;-83
2020/12/19 04:40:29;;;;;;;12.68;8.20;;;6.10;92.40;;;;;;2039439;29;20539;-81
2020/12/19 04:41:31;;;;;;;12.40;8.43;;;6.10;92.40;;;;;;2055153;28;20490;-82
2020/12/19 04:42:33;;;;;;;12.52;8.52;;;6.10;92.40;;;;;;2060391;28;20043;-82
2020/12/19 04:43:34;;;;;;;12.77;8.60;;;6.10;92.40;;;;;;2058965;28;20019;-82
2020/12/19 04:44:36;;;;;;;13.45;8.93;;;6.10;92.70;;;;;;2058016;28;20039;-81
2020/12/19 04:45:37;;;;;;;14.80;8.77;;;6.10;92.70;;;;;;2052015;28;20525;-82
2020/12/19 04:46:41;;;;;;;13.00;8.63;;;6.10;92.40;;;;;;2055322;28;20092;-82
2020/12/19 04:47:42;;;;;;;13.75;9.07;;;6.10;92.40;;;;;;2047858;28;20091;-82
2020/12/19 04:48:44;;;;;;;13.18;9.15;;;6.10;92.40;;;;;;2043390;28;20032;-82
2020/12/19 04:49:45;;;;;;;13.07;8.98;;;6.10;92.40;;;;;;2037366;29;20071;-82
2020/12/19 04:50:47;;;;;;;12.55;8.70;;;6.10;92.40;;;;;;2040794;28;20482;-82
2020/12/19 04:51:47;;;;;;;15.10;10.35;;;6.10;92.40;;;;;;2056968;28;20046;-82
2020/12/19 04:52:48;;;;;;;13.82;10.20;;;6.00;92.40;;;;;;2057813;28;20697;-83
2020/12/19 04:53:49;;;;;;;13.32;9.38;;;6.10;92.40;;;;;;2040767;29;20028;-82
2020/12/19 04:54:50;;;;;;;13.68;9.25;;;6.10;92.40;;;;;;2032066;29;20499;-82
2020/12/19 04:55:51;;;;;;;12.88;8.90;;;6.10;92.40;;;;;;2040990;28;20036;-82
2020/12/19 04:56:55;;;;;;;13.18;8.93;;;6.10;92.40;;;;;;2049092;28;20106;-82
2020/12/19 04:57:57;;;;;;;13.82;9.27;;;6.10;92.40;;;;;;2043290;29;20098;-82
2020/12/19 04:59:01;;;;;;;12.48;8.80;;;6.10;92.40;;;;;;2052668;28;20038;-82
2020/12/19 05:00:04;;;;;;;12.85;8.27;;;6.10;92.40;;;;;;2051534;28;20519;-82
2020/12/19 05:01:05;;;;;;;13.23;8.68;;;6.10;92.40;;;;;;2037894;29;20036;-82
2020/12/19 05:02:06;;;;;;;12.98;8.65;;;6.10;92.40;;;;;;2040912;29;20023;-82
2020/12/19 05:03:07;;;;;;;14.48;9.45;;;6.10;92.40;;;;;;2042393;29;20039;-83
2020/12/19 05:04:13;;;;;;;13.48;9.02;;;6.10;92.40;;;;;;2055425;28;20113;-83
2020/12/19 05:05:13;;;;;;;14.23;9.50;;;6.10;92.40;;;;;;2055507;28;20019;-82
2020/12/19 05:06:17;;;;;;;13.35;9.23;;;6.10;92.40;;;;;;2048400;28;20070;-82
2020/12/19 05:07:17;;;;;;;13.18;8.43;;;6.10;92.40;;;;;;2048371;28;20032;-82
2020/12/19 05:08:18;;;;;;;13.32;8.43;;;6.10;92.40;;;;;;2052699;28;20392;-82
2020/12/19 05:09:19;;;;;;;12.32;8.30;;;6.00;92.40;;;;;;2042839;29;20134;-82
2020/12/19 05:10:20;;;;;;;13.90;9.18;;;6.00;92.70;;;;;;2048896;28;20511;-82
2020/12/19 05:11:22;;;;;;;12.65;8.95;;;6.00;92.40;;;;;;2048694;28;20524;-82
2020/12/19 05:12:26;;;;;;;13.45;8.82;;;6.00;92.50;;;;;;2052991;28;20130;-82
2020/12/19 05:13:27;;;;;;;12.38;8.70;;;6.00;92.40;;;;;;2048422;29;20028;-82
2020/12/19 05:14:31;;;;;;;13.13;9.10;;;6.00;92.40;;;;;;2045451;29;20059;-82
2020/12/19 05:15:32;;;;;;;13.05;8.90;;;6.00;92.50;;;;;;2048291;28;20117;-82
2020/12/19 05:16:33;;;;;;;13.75;8.93;;;6.00;92.40;;;;;;2053270;28;20038;-82
2020/12/19 05:17:34;;;;;;;13.43;8.52;;;6.00;92.50;;;;;;2054959;28;20026;-82
2020/12/19 05:18:36;;;;;;;16.38;10.18;;;6.00;92.50;;;;;;2051350;28;20030;-82
2020/12/19 05:19:36;;;;;;;14.95;10.07;;;6.00;92.50;;;;;;2049321;28;20043;-82